createdAt,value
2023-05-05T00:01:59.389Z,100.00
2023-05-05T00:04:32.313Z,100.00
2023-05-05T00:07:02.297Z,100.00
2023-05-05T00:09:32.138Z,100.00
2023-05-05T00:12:02.058Z,100.00
2023-05-05T00:14:32.158Z,100.00
2023-05-05T00:17:02.293Z,100.00
2023-05-05T00:19:34.922Z,100.00
2023-05-05T00:22:05.039Z,100.00
2023-05-05T00:24:34.941Z,100.00
2023-05-05T00:27:04.870Z,100.00
2023-05-05T00:29:35.218Z,100.00
2023-05-05T00:32:05.364Z,100.00
2023-05-05T00:34:37.770Z,100.00
2023-05-05T00:37:07.631Z,100.00
2023-05-05T00:39:37.542Z,100.00
2023-05-05T00:42:07.515Z,100.00
2023-05-05T00:44:42.939Z,100.00
2023-05-05T00:47:13.764Z,100.00
2023-05-05T00:49:46.869Z,100.00
2023-05-05T00:52:16.884Z,100.00
2023-05-05T00:54:46.928Z,100.00
2023-05-05T00:57:16.834Z,100.00
2023-05-05T00:59:47.530Z,100.00
2023-05-05T01:02:17.528Z,100.00
2023-05-05T01:04:49.967Z,100.00
2023-05-05T01:07:31.775Z,100.00
2023-05-05T01:10:19.706Z,100.00
2023-05-05T01:13:00.980Z,100.00
2023-05-05T01:15:36.234Z,100.00
2023-05-05T01:18:14.684Z,100.00
2023-05-05T01:20:55.550Z,100.00
2023-05-05T01:23:47.434Z,100.00
2023-05-05T01:26:39.616Z,100.00
2023-05-05T01:29:34.268Z,100.00
2023-05-05T01:32:10.636Z,100.00
2023-05-05T01:34:45.042Z,100.00
2023-05-05T01:37:25.807Z,100.00
2023-05-05T01:40:00.380Z,100.00
2023-05-05T01:42:32.720Z,100.00
2023-05-05T01:45:05.529Z,100.00
2023-05-05T01:47:40.426Z,100.00
2023-05-05T01:50:12.786Z,100.00
2023-05-05T01:52:43.996Z,100.00
2023-05-05T01:55:15.435Z,100.00
2023-05-05T01:57:47.580Z,100.00
2023-05-05T02:00:19.573Z,100.00
2023-05-05T02:02:53.295Z,100.00
2023-05-05T02:05:26.691Z,100.00
2023-05-05T02:08:01.585Z,100.00
2023-05-05T02:10:32.967Z,100.00
2023-05-05T02:13:04.512Z,100.00
2023-05-05T02:15:34.721Z,100.00
2023-05-05T02:18:09.087Z,100.00
2023-05-05T02:20:41.370Z,100.00
2023-05-05T02:23:11.671Z,100.00
2023-05-05T02:25:44.824Z,100.00
2023-05-05T02:28:21.256Z,100.00
2023-05-05T02:30:58.567Z,100.00
2023-05-05T02:33:36.130Z,100.00
2023-05-05T02:36:14.152Z,100.00
2023-05-05T02:38:57.562Z,100.00
2023-05-05T02:41:31.626Z,100.00
2023-05-05T02:44:07.414Z,100.00
2023-05-05T02:46:40.412Z,100.00
2023-05-05T02:49:13.132Z,100.00
2023-05-05T02:51:43.374Z,100.00
2023-05-05T02:54:22.254Z,100.00
2023-05-05T02:56:53.915Z,100.00
2023-05-05T02:59:33.800Z,100.00
2023-05-05T03:02:17.028Z,100.00
2023-05-05T03:04:53.392Z,100.00
2023-05-05T03:07:28.505Z,100.00
2023-05-05T03:10:06.028Z,100.00
2023-05-05T03:12:43.209Z,100.00
2023-05-05T03:15:21.211Z,100.00
2023-05-05T03:17:53.272Z,100.00
2023-05-05T03:20:27.004Z,100.00
2023-05-05T03:22:58.791Z,100.00
2023-05-05T03:25:46.775Z,100.00
2023-05-05T03:28:30.023Z,100.00
2023-05-05T03:31:02.897Z,100.00
2023-05-05T03:33:34.223Z,100.00
2023-05-05T03:36:07.611Z,100.00
2023-05-05T03:38:37.936Z,100.00
2023-05-05T03:41:08.002Z,100.00
2023-05-05T03:43:39.442Z,100.00
2023-05-05T03:46:10.455Z,100.00
2023-05-05T03:48:41.863Z,100.00
2023-05-05T03:51:15.686Z,100.00
2023-05-05T03:53:46.824Z,100.00
2023-05-05T03:56:16.746Z,100.00
2023-05-05T03:58:46.687Z,100.00
2023-05-05T04:01:16.895Z,100.00
2023-05-05T04:03:46.880Z,100.00
2023-05-05T04:06:19.689Z,100.00
2023-05-05T04:08:49.670Z,100.00
2023-05-05T04:11:19.577Z,100.00
2023-05-05T04:13:50.121Z,100.00
2023-05-05T04:16:21.468Z,100.00
2023-05-05T04:18:51.468Z,100.00
2023-05-05T04:21:24.018Z,100.00
2023-05-05T04:23:54.007Z,100.00
2023-05-05T04:26:25.044Z,100.00
2023-05-05T04:28:55.955Z,100.00
2023-05-05T04:31:26.169Z,100.00
2023-05-05T04:33:56.201Z,100.00
2023-05-05T04:36:28.830Z,100.00
2023-05-05T04:38:58.909Z,100.00
2023-05-05T04:41:30.149Z,100.00
2023-05-05T04:44:00.990Z,100.00
2023-05-05T04:46:31.131Z,100.00
2023-05-05T04:49:03.584Z,100.00
2023-05-05T04:51:36.404Z,100.00
2023-05-05T04:54:07.571Z,100.00
2023-05-05T04:56:37.541Z,100.00
2023-05-05T04:59:07.788Z,100.00
2023-05-05T05:01:38.746Z,100.00
2023-05-05T05:04:08.655Z,100.00
2023-05-05T05:06:41.307Z,100.00
2023-05-05T05:09:11.225Z,100.00
2023-05-05T05:11:41.322Z,100.00
2023-05-05T05:14:11.177Z,100.00
2023-05-05T05:16:41.196Z,100.00
2023-05-05T05:19:11.142Z,100.00
2023-05-05T05:21:43.646Z,100.00
2023-05-05T05:24:13.919Z,100.00
2023-05-05T05:26:43.850Z,100.00
2023-05-05T05:29:14.074Z,91.92
2023-05-05T05:31:43.971Z,80.24
2023-05-05T05:34:13.905Z,74.04
2023-05-05T05:36:47.191Z,72.65
2023-05-05T05:39:17.080Z,70.42
2023-05-05T05:41:47.327Z,70.10
2023-05-05T05:44:17.305Z,70.19
2023-05-05T05:46:47.355Z,68.19
2023-05-05T05:49:19.162Z,62.74
2023-05-05T05:51:51.660Z,60.98
2023-05-05T05:54:21.530Z,61.47
2023-05-05T05:56:51.515Z,62.67
2023-05-05T05:59:21.489Z,59.77
2023-05-05T06:01:51.370Z,55.29
2023-05-05T06:04:21.335Z,51.90
2023-05-05T06:06:54.955Z,48.41
2023-05-05T06:09:25.596Z,46.42
2023-05-05T06:11:57.443Z,47.40
2023-05-05T06:14:27.905Z,49.77
2023-05-05T06:16:58.197Z,50.63
2023-05-05T06:19:30.755Z,52.44
2023-05-05T06:22:03.812Z,52.79
2023-05-05T06:24:34.078Z,53.21
2023-05-05T06:27:05.716Z,61.10
2023-05-05T06:29:36.109Z,64.04
2023-05-05T06:32:08.422Z,61.66
2023-05-05T06:34:38.681Z,60.22
2023-05-05T06:37:11.612Z,59.68
2023-05-05T06:39:41.883Z,61.56
2023-05-05T06:42:12.226Z,62.44
2023-05-05T06:44:42.583Z,62.81
2023-05-05T06:47:12.802Z,63.16
2023-05-05T06:49:43.004Z,62.03
2023-05-05T06:52:15.811Z,59.63
2023-05-05T06:54:46.307Z,57.74
2023-05-05T06:57:16.660Z,55.76
2023-05-05T06:59:46.855Z,54.44
2023-05-05T07:02:17.185Z,54.58
2023-05-05T07:04:47.614Z,53.96
2023-05-05T07:07:21.248Z,55.37
2023-05-05T07:09:51.548Z,55.60
2023-05-05T07:12:22.045Z,51.96
2023-05-05T07:14:52.363Z,47.12
2023-05-05T07:17:22.601Z,45.33
2023-05-05T07:19:55.153Z,45.33
2023-05-05T07:22:28.003Z,45.25
2023-05-05T07:24:58.468Z,43.73
2023-05-05T07:27:28.947Z,43.52
2023-05-05T07:29:59.279Z,43.19
2023-05-05T07:32:29.688Z,42.40
2023-05-05T07:34:59.947Z,43.16
2023-05-05T07:37:32.805Z,44.27
2023-05-05T07:40:03.113Z,44.30
2023-05-05T07:42:33.486Z,45.20
2023-05-05T07:45:03.751Z,45.26
2023-05-05T07:47:34.102Z,45.62
2023-05-05T07:50:04.330Z,45.89
2023-05-05T07:52:44.986Z,46.34
2023-05-05T07:55:18.382Z,46.55
2023-05-05T07:57:49.820Z,45.22
2023-05-05T08:00:21.902Z,45.64
2023-05-05T08:02:52.310Z,48.80
2023-05-05T08:05:22.601Z,49.83
2023-05-05T08:07:55.440Z,52.10
2023-05-05T08:10:25.821Z,54.31
2023-05-05T08:12:56.180Z,64.91
2023-05-05T08:15:26.535Z,84.22
2023-05-05T08:17:57.508Z,91.29
2023-05-05T08:20:30.776Z,90.19
2023-05-05T08:23:03.603Z,96.19
2023-05-05T08:25:34.178Z,100.00
2023-05-05T08:28:04.795Z,100.00
2023-05-05T08:30:35.143Z,100.00
2023-05-05T08:33:05.384Z,100.00
2023-05-05T08:35:35.698Z,100.00
2023-05-05T08:38:08.564Z,100.00
2023-05-05T08:40:41.173Z,100.00
2023-05-05T08:43:11.435Z,100.00
2023-05-05T08:45:43.180Z,100.00
2023-05-05T08:48:14.656Z,100.00
2023-05-05T08:50:47.654Z,100.00
2023-05-05T08:53:24.712Z,100.00
2023-05-05T08:55:56.774Z,100.00
2023-05-05T08:58:28.976Z,100.00
2023-05-05T09:01:01.680Z,100.00
2023-05-05T09:03:32.437Z,100.00
2023-05-05T09:06:02.938Z,100.00
2023-05-05T09:08:36.050Z,100.00
2023-05-05T09:11:06.336Z,100.00
2023-05-05T09:13:36.516Z,100.00
2023-05-05T09:16:07.048Z,97.76
2023-05-05T09:18:41.257Z,96.22
2023-05-05T09:21:24.944Z,93.93
2023-05-05T09:24:11.154Z,88.01
2023-05-05T09:26:42.006Z,82.13
2023-05-05T09:29:12.289Z,78.40
2023-05-05T09:31:42.645Z,77.49
2023-05-05T09:34:19.399Z,68.27
2023-05-05T09:36:50.392Z,60.02
2023-05-05T09:39:23.255Z,54.90
2023-05-05T09:41:53.701Z,50.64
2023-05-05T09:44:36.505Z,49.29
2023-05-05T09:47:18.161Z,48.67
2023-05-05T09:50:00.528Z,53.63
2023-05-05T09:52:31.365Z,52.36
2023-05-05T09:55:04.286Z,50.88
2023-05-05T09:57:35.584Z,51.55
2023-05-05T10:00:06.639Z,48.85
2023-05-05T10:02:37.922Z,47.25
2023-05-05T10:05:11.234Z,43.83
2023-05-05T10:07:42.531Z,41.04
2023-05-05T10:10:17.412Z,39.11
2023-05-05T10:12:49.801Z,37.66
2023-05-05T10:15:20.668Z,36.33
2023-05-05T10:18:06.038Z,35.02
2023-05-05T10:20:39.231Z,34.18
2023-05-05T10:23:10.954Z,35.98
2023-05-05T10:25:49.384Z,32.63
2023-05-05T10:28:26.345Z,31.13
2023-05-05T10:30:59.605Z,30.94
2023-05-05T10:33:37.368Z,31.44
2023-05-05T10:36:08.155Z,31.77
2023-05-05T10:38:39.112Z,33.76
2023-05-05T10:41:14.629Z,34.09
2023-05-05T10:43:45.476Z,34.52
2023-05-05T10:46:16.124Z,35.52
2023-05-05T10:48:52.170Z,37.38
2023-05-05T10:51:39.332Z,39.92
2023-05-05T10:54:16.182Z,40.84
2023-05-05T10:56:50.106Z,41.93
2023-05-05T10:59:44.646Z,42.86
2023-05-05T11:02:25.107Z,41.88
2023-05-05T11:05:10.769Z,41.91
2023-05-05T11:07:41.252Z,40.88
2023-05-05T11:10:12.605Z,42.61
2023-05-05T11:13:12.810Z,43.96
2023-05-05T11:15:45.637Z,44.60
2023-05-05T11:18:35.884Z,45.41
2023-05-05T11:21:15.842Z,44.45
2023-05-05T11:23:47.697Z,44.95
2023-05-05T11:26:19.519Z,43.67
2023-05-05T11:29:01.376Z,44.85
2023-05-05T11:31:34.784Z,43.47
2023-05-05T11:34:40.660Z,42.47
2023-05-05T11:37:10.845Z,42.45
2023-05-05T11:39:54.033Z,41.11
2023-05-05T11:42:28.302Z,40.16
2023-05-05T11:44:58.232Z,39.19
2023-05-05T11:47:35.674Z,37.26
2023-05-05T11:50:20.266Z,37.13
2023-05-05T11:52:51.260Z,35.29
2023-05-05T11:55:27.490Z,34.47
2023-05-05T11:57:57.386Z,33.79
2023-05-05T12:00:36.825Z,32.51
2023-05-05T12:03:09.623Z,32.53
2023-05-05T12:05:39.628Z,32.43
2023-05-05T12:08:10.736Z,32.21
2023-05-05T12:10:41.222Z,32.62
2023-05-05T12:13:21.147Z,33.08
2023-05-05T12:15:51.187Z,33.99
2023-05-05T12:18:24.190Z,34.47
2023-05-05T12:20:54.086Z,34.44
2023-05-05T12:23:27.423Z,34.84
2023-05-05T12:25:57.275Z,34.97
2023-05-05T12:28:27.153Z,34.63
2023-05-05T12:31:00.777Z,35.62
2023-05-05T12:33:33.555Z,37.39
2023-05-05T12:36:04.600Z,36.69
2023-05-05T12:38:34.497Z,38.40
2023-05-05T12:41:05.620Z,39.84
2023-05-05T12:43:36.660Z,40.21
2023-05-05T12:46:08.929Z,40.49
2023-05-05T12:48:46.348Z,40.64
2023-05-05T12:51:23.423Z,40.29
2023-05-05T12:54:06.218Z,40.87
2023-05-05T12:56:40.806Z,39.08
2023-05-05T12:59:11.972Z,38.77
2023-05-05T13:01:52.198Z,38.67
2023-05-05T13:04:25.826Z,38.46
2023-05-05T13:07:12.545Z,36.27
2023-05-05T13:09:42.802Z,35.37
2023-05-05T13:12:13.192Z,35.53
2023-05-05T13:14:44.254Z,36.14
2023-05-05T13:17:14.496Z,35.68
2023-05-05T13:19:48.784Z,35.42
2023-05-05T13:22:19.528Z,35.75
2023-05-05T13:24:52.214Z,37.58
2023-05-05T13:27:23.830Z,39.05
2023-05-05T13:29:53.704Z,39.90
2023-05-05T13:32:23.643Z,39.63
2023-05-05T13:34:56.159Z,39.20
2023-05-05T13:37:26.094Z,39.27
2023-05-05T13:39:59.462Z,39.59
2023-05-05T13:42:29.569Z,38.38
2023-05-05T13:44:59.463Z,36.47
2023-05-05T13:47:29.481Z,36.29
2023-05-05T13:50:02.196Z,35.15
2023-05-05T13:52:32.988Z,35.01
2023-05-05T13:55:03.564Z,33.49
2023-05-05T13:57:33.446Z,32.48
2023-05-05T14:00:04.502Z,30.28
2023-05-05T14:02:39.908Z,30.90
2023-05-05T14:05:13.112Z,33.18
2023-05-05T14:07:43.376Z,34.97
2023-05-05T14:10:13.608Z,36.60
2023-05-05T14:12:43.783Z,36.68
2023-05-05T14:15:14.062Z,37.08
2023-05-05T14:17:44.058Z,37.85
2023-05-05T14:20:16.865Z,38.63
2023-05-05T14:22:48.827Z,39.49
2023-05-05T14:25:19.426Z,39.83
2023-05-05T14:27:49.377Z,39.73
2023-05-05T14:30:19.430Z,40.51
2023-05-05T14:32:49.352Z,41.59
2023-05-05T14:35:21.901Z,42.42
2023-05-05T14:37:51.802Z,42.57
2023-05-05T14:40:21.833Z,42.71
2023-05-05T14:42:51.967Z,43.23
2023-05-05T14:45:21.869Z,44.39
2023-05-05T14:47:51.855Z,46.37
2023-05-05T14:50:24.538Z,47.07
2023-05-05T14:52:54.504Z,50.02
2023-05-05T14:55:25.118Z,52.19
2023-05-05T14:57:55.032Z,51.51
2023-05-05T15:00:26.666Z,51.32
2023-05-05T15:02:56.880Z,52.04
2023-05-05T15:05:29.444Z,53.65
2023-05-05T15:07:59.403Z,54.13
2023-05-05T15:10:29.289Z,54.28
2023-05-05T15:12:59.176Z,54.74
2023-05-05T15:15:29.108Z,55.35
2023-05-05T15:17:59.062Z,56.44
2023-05-05T15:20:31.900Z,56.97
2023-05-05T15:23:01.790Z,57.70
2023-05-05T15:25:31.785Z,60.04
2023-05-05T15:28:01.647Z,61.26
2023-05-05T15:30:32.171Z,62.78
2023-05-05T15:33:02.150Z,64.40
2023-05-05T15:35:34.686Z,64.57
2023-05-05T15:38:04.908Z,66.25
2023-05-05T15:40:34.831Z,67.43
2023-05-05T15:43:04.744Z,68.95
2023-05-05T15:45:34.705Z,68.70
2023-05-05T15:48:04.695Z,68.94
2023-05-05T15:50:37.502Z,70.15
2023-05-05T15:53:07.474Z,71.59
2023-05-05T15:55:38.134Z,74.13
2023-05-05T15:58:08.080Z,74.04
2023-05-05T16:00:41.838Z,91.27
2023-05-05T16:03:11.895Z,96.15
2023-05-05T16:05:44.529Z,100.00
2023-05-05T16:08:14.442Z,100.00
2023-05-05T16:10:44.679Z,100.00
2023-05-05T16:13:14.629Z,100.00
2023-05-05T16:15:44.824Z,100.00
2023-05-05T16:18:14.837Z,100.00
2023-05-05T16:20:47.289Z,100.00
2023-05-05T16:23:17.174Z,100.00
2023-05-05T16:25:47.193Z,100.00
2023-05-05T16:28:17.380Z,100.00
2023-05-05T16:30:47.351Z,100.00
2023-05-05T16:33:17.261Z,100.00
2023-05-05T16:35:49.705Z,100.00
2023-05-05T16:38:19.529Z,100.00
2023-05-05T16:40:49.611Z,100.00
2023-05-05T16:43:19.734Z,100.00
2023-05-05T16:45:49.636Z,100.00
2023-05-05T16:48:20.285Z,100.00
2023-05-05T16:50:52.751Z,100.00
2023-05-05T16:53:22.659Z,100.00
2023-05-05T16:55:53.382Z,100.00
2023-05-05T16:58:23.476Z,100.00
2023-05-05T17:00:54.696Z,100.00
2023-05-05T17:03:25.061Z,100.00
2023-05-05T17:05:57.702Z,100.00
2023-05-05T17:08:27.686Z,100.00
2023-05-05T17:10:57.613Z,100.00
2023-05-05T17:13:27.477Z,100.00
2023-05-05T17:15:57.699Z,100.00
2023-05-05T17:18:27.676Z,100.00
2023-05-05T17:21:00.169Z,100.00
2023-05-05T17:23:30.491Z,100.00
2023-05-05T17:26:01.145Z,100.00
2023-05-05T17:28:31.030Z,100.00
2023-05-05T17:31:02.209Z,100.00
2023-05-05T17:33:32.085Z,100.00
2023-05-05T17:36:04.649Z,100.00
2023-05-05T17:38:34.527Z,100.00
2023-05-05T17:41:04.466Z,100.00
2023-05-05T17:43:34.324Z,100.00
2023-05-05T17:46:04.318Z,100.00
2023-05-05T17:48:34.277Z,100.00
2023-05-05T17:51:07.086Z,100.00
2023-05-05T17:53:37.063Z,100.00
2023-05-05T17:56:08.908Z,100.00
2023-05-05T17:58:39.309Z,100.00
2023-05-05T18:01:13.582Z,100.00
2023-05-05T18:03:43.520Z,100.00
2023-05-05T18:06:16.054Z,100.00
2023-05-05T18:08:46.846Z,100.00
2023-05-05T18:11:16.840Z,100.00
2023-05-05T18:13:46.676Z,100.00
2023-05-05T18:16:18.330Z,100.00
2023-05-05T18:18:48.301Z,100.00
2023-05-05T18:21:20.873Z,100.00
2023-05-05T18:23:50.811Z,100.00
2023-05-05T18:26:20.748Z,100.00
2023-05-05T18:28:50.622Z,100.00
2023-05-05T18:31:20.706Z,100.00
2023-05-05T18:33:51.223Z,100.00
2023-05-05T18:36:26.719Z,100.00
2023-05-05T18:38:56.771Z,100.00
2023-05-05T18:41:26.879Z,100.00
2023-05-05T18:43:56.823Z,100.00
2023-05-05T18:46:26.926Z,100.00
2023-05-05T18:48:56.940Z,100.00
2023-05-05T18:51:29.376Z,100.00
2023-05-05T18:54:01.043Z,100.00
2023-05-05T18:56:31.327Z,100.00
2023-05-05T18:59:01.364Z,100.00
2023-05-05T19:01:31.291Z,100.00
2023-05-05T19:04:01.200Z,100.00
2023-05-05T19:06:33.894Z,100.00
2023-05-05T19:09:04.154Z,100.00
2023-05-05T19:11:34.167Z,100.00
2023-05-05T19:14:04.046Z,100.00
2023-05-05T19:16:34.104Z,100.00
2023-05-05T19:19:04.126Z,100.00
2023-05-05T19:21:36.561Z,100.00
2023-05-05T19:24:06.857Z,100.00
2023-05-05T19:26:36.755Z,100.00
2023-05-05T19:29:06.677Z,100.00
2023-05-05T19:31:36.696Z,100.00
2023-05-05T19:34:08.030Z,100.00
2023-05-05T19:36:40.951Z,100.00
2023-05-05T19:39:11.409Z,100.00
2023-05-05T19:41:42.067Z,100.00
2023-05-05T19:44:12.904Z,100.00
2023-05-05T19:46:43.015Z,100.00
2023-05-05T19:49:13.118Z,100.00
2023-05-05T19:51:47.702Z,100.00
2023-05-05T19:54:17.876Z,100.00
2023-05-05T19:56:47.855Z,100.00
2023-05-05T19:59:17.739Z,100.00
2023-05-05T20:01:47.678Z,100.00
2023-05-05T20:04:17.684Z,100.00
2023-05-05T20:06:50.229Z,100.00
2023-05-05T20:09:20.224Z,100.00
2023-05-05T20:11:50.095Z,100.00
2023-05-05T20:14:19.972Z,100.00
2023-05-05T20:16:49.830Z,100.00
2023-05-05T20:19:19.831Z,100.00
2023-05-05T20:21:52.532Z,100.00
2023-05-05T20:24:22.467Z,100.00
2023-05-05T20:26:52.423Z,100.00
2023-05-05T20:29:22.709Z,100.00
2023-05-05T20:31:52.600Z,100.00
2023-05-05T20:34:25.124Z,100.00
2023-05-05T20:36:58.446Z,100.00
2023-05-05T20:39:28.328Z,100.00
2023-05-05T20:41:58.222Z,100.00
2023-05-05T20:44:28.155Z,100.00
2023-05-05T20:46:58.131Z,100.00
2023-05-05T20:49:28.110Z,100.00
2023-05-05T20:52:00.746Z,100.00
2023-05-05T20:54:34.341Z,100.00
2023-05-05T20:57:04.729Z,100.00
2023-05-05T20:59:34.984Z,100.00
2023-05-05T21:02:04.867Z,100.00
2023-05-05T21:04:34.819Z,100.00
2023-05-05T21:07:07.284Z,100.00
2023-05-05T21:09:38.039Z,100.00
2023-05-05T21:12:08.877Z,100.00
2023-05-05T21:14:38.716Z,100.00
2023-05-05T21:17:08.581Z,100.00
2023-05-05T21:19:38.447Z,100.00
2023-05-05T21:22:11.071Z,100.00
2023-05-05T21:24:41.230Z,100.00
2023-05-05T21:27:11.055Z,100.00
2023-05-05T21:29:41.037Z,100.00
2023-05-05T21:32:13.065Z,100.00
2023-05-05T21:34:42.950Z,100.00
2023-05-05T21:37:15.771Z,100.00
2023-05-05T21:39:45.780Z,100.00
2023-05-05T21:42:16.110Z,100.00
2023-05-05T21:44:46.106Z,100.00
2023-05-05T21:47:16.428Z,100.00
2023-05-05T21:49:46.313Z,100.00
2023-05-05T21:52:18.825Z,100.00
2023-05-05T21:54:48.757Z,100.00
2023-05-05T21:57:18.905Z,100.00
2023-05-05T21:59:48.777Z,100.00
2023-05-05T22:02:18.671Z,100.00
2023-05-05T22:04:49.406Z,100.00
2023-05-05T22:07:21.998Z,100.00
2023-05-05T22:09:52.722Z,100.00
2023-05-05T22:12:22.570Z,100.00
2023-05-05T22:14:52.458Z,100.00
2023-05-05T22:17:22.260Z,100.00
2023-05-05T22:19:52.136Z,100.00
2023-05-05T22:22:24.668Z,100.00
2023-05-05T22:24:54.524Z,100.00
2023-05-05T22:27:25.019Z,100.00
2023-05-05T22:29:54.902Z,100.00
2023-05-05T22:32:24.895Z,100.00
2023-05-05T22:34:54.784Z,100.00
2023-05-05T22:37:27.603Z,100.00
2023-05-05T22:39:57.568Z,100.00
2023-05-05T22:42:27.456Z,100.00
2023-05-05T22:44:57.533Z,100.00
2023-05-05T22:47:27.676Z,100.00
2023-05-05T22:49:57.963Z,100.00
2023-05-05T22:52:30.873Z,100.00
2023-05-05T22:55:00.952Z,100.00
2023-05-05T22:57:30.962Z,100.00
2023-05-05T23:00:00.865Z,100.00
2023-05-05T23:02:31.931Z,100.00
2023-05-05T23:05:01.823Z,100.00
2023-05-05T23:07:34.344Z,100.00
2023-05-05T23:10:04.258Z,100.00
2023-05-05T23:12:34.309Z,100.00
2023-05-05T23:15:04.290Z,100.00
2023-05-05T23:17:34.226Z,100.00
2023-05-05T23:20:05.421Z,100.00
2023-05-05T23:22:38.032Z,100.00
2023-05-05T23:25:08.858Z,100.00
2023-05-05T23:27:39.033Z,100.00
2023-05-05T23:30:10.614Z,100.00
2023-05-05T23:32:40.816Z,100.00
2023-05-05T23:35:12.046Z,100.00
2023-05-05T23:37:44.766Z,100.00
2023-05-05T23:40:14.666Z,100.00
2023-05-05T23:42:44.610Z,100.00
2023-05-05T23:45:14.540Z,100.00
2023-05-05T23:47:44.528Z,100.00
2023-05-05T23:50:14.536Z,100.00
2023-05-05T23:52:47.086Z,100.00
2023-05-05T23:55:17.172Z,100.00
2023-05-05T23:57:47.079Z,100.00
